Time;durP1;ratioP1;P1;durP2;ratioP2;P2;SDS_P1;SDS_P2;PMS_P1;PMS_P2;Temp;Humidity;BMP_temperature;BMP_pressure;BME280_temperature;BME280_humidity;BME280_pressure;Samples;Min_cycle;Max_cycle;Signal;HPM_P1;HPM_P2
2023/08/13 00:01:28;;;;;;;192.60;59.47;;;;;;;;;;5051189;28;20772;-53
2023/08/13 00:03:54;;;;;;;188.70;56.10;;;;;;;;;;5051098;28;20922;-54
2023/08/13 00:06:20;;;;;;;190.00;58.13;;;;;;;;;;5050861;28;20463;-54
2023/08/13 00:08:46;;;;;;;188.50;56.80;;;;;;;;;;5051107;28;20940;-54
2023/08/13 00:11:12;;;;;;;188.77;56.17;;;;;;;;;;5048723;28;20796;-54
2023/08/13 00:13:38;;;;;;;191.67;60.33;;;;;;;;;;5054104;28;20401;-54
2023/08/13 00:16:05;;;;;;;191.17;60.13;;;;;;;;;;5059955;28;20446;-55
2023/08/13 00:18:32;;;;;;;190.83;58.27;;;;;;;;;;5055193;28;20422;-54
2023/08/13 00:20:58;;;;;;;190.07;56.10;;;;;;;;;;5054529;28;20958;-53
2023/08/13 00:23:24;;;;;;;192.00;58.57;;;;;;;;;;5054828;28;20442;-53
2023/08/13 00:25:49;;;;;;;191.07;57.33;;;;;;;;;;5058567;28;20547;-55
2023/08/13 00:28:15;;;;;;;193.67;62.77;;;;;;;;;;5055119;28;20413;-55
2023/08/13 00:30:41;;;;;;;191.50;59.23;;;;;;;;;;5057208;28;20427;-55
2023/08/13 00:33:07;;;;;;;188.23;55.40;;;;;;;;;;5059162;28;20416;-54
2023/08/13 00:35:33;;;;;;;187.20;56.13;;;;;;;;;;5054697;28;20428;-54
2023/08/13 00:37:59;;;;;;;191.50;61.53;;;;;;;;;;5056627;28;20461;-54
2023/08/13 00:40:25;;;;;;;190.77;58.57;;;;;;;;;;5054474;28;20413;-55
2023/08/13 00:42:52;;;;;;;191.10;58.27;;;;;;;;;;5060030;28;20418;-54
2023/08/13 00:45:18;;;;;;;188.70;57.40;;;;;;;;;;5054780;28;20791;-54
2023/08/13 00:47:45;;;;;;;189.47;57.83;;;;;;;;;;5054468;28;20414;-54
2023/08/13 00:50:11;;;;;;;187.70;56.40;;;;;;;;;;5054041;28;20433;-55
2023/08/13 00:52:37;;;;;;;189.27;57.20;;;;;;;;;;5054223;28;20960;-54
2023/08/13 00:55:03;;;;;;;191.10;58.47;;;;;;;;;;5054362;28;20420;-55
2023/08/13 00:57:30;;;;;;;189.17;56.87;;;;;;;;;;5054375;28;20414;-54
2023/08/13 00:59:57;;;;;;;191.30;59.30;;;;;;;;;;5054419;28;20497;-54
2023/08/13 01:02:24;;;;;;;190.40;57.95;;;;;;;;;;5053787;28;20433;-55
2023/08/13 01:04:50;;;;;;;190.57;59.20;;;;;;;;;;5053666;28;20191;-55
2023/08/13 01:07:19;;;;;;;189.97;58.00;;;;;;;;;;5053773;28;20511;-53
2023/08/13 01:10:00;;;;;;;197.27;64.07;;;;;;;;;;5053958;28;20539;-53
2023/08/13 01:12:31;;;;;;;187.80;57.17;;;;;;;;;;5054397;28;20510;-54
2023/08/13 01:15:30;;;;;;;190.97;60.47;;;;;;;;;;5054163;28;20887;-55
2023/08/13 01:17:56;;;;;;;190.47;58.33;;;;;;;;;;5052233;28;20785;-55
2023/08/13 01:20:29;;;;;;;190.70;59.77;;;;;;;;;;5053653;28;20415;-54
2023/08/13 01:22:55;;;;;;;190.57;60.47;;;;;;;;;;5051361;28;20423;-53
2023/08/13 01:25:23;;;;;;;191.60;58.37;;;;;;;;;;5053270;28;20411;-54
2023/08/13 01:27:54;;;;;;;188.67;56.50;;;;;;;;;;5053590;28;20417;-54
2023/08/13 01:30:26;;;;;;;191.37;60.57;;;;;;;;;;5053727;28;20451;-55
2023/08/13 01:32:57;;;;;;;188.53;58.27;;;;;;;;;;5053769;28;20901;-55
2023/08/13 01:35:24;;;;;;;188.27;57.10;;;;;;;;;;5053612;28;20495;-54
2023/08/13 01:37:51;;;;;;;188.47;57.50;;;;;;;;;;5054293;28;20412;-53
2023/08/13 01:40:17;;;;;;;187.77;56.63;;;;;;;;;;5053693;28;20915;-54
2023/08/13 01:42:43;;;;;;;188.97;58.37;;;;;;;;;;5053628;28;20431;-54
2023/08/13 01:45:09;;;;;;;188.80;58.47;;;;;;;;;;5053399;28;20421;-55
2023/08/13 01:47:35;;;;;;;187.57;56.80;;;;;;;;;;5053360;28;20461;-53
2023/08/13 01:50:01;;;;;;;189.57;58.97;;;;;;;;;;5053063;28;20515;-55
2023/08/13 01:52:27;;;;;;;189.37;57.87;;;;;;;;;;5048493;28;20448;-54
2023/08/13 01:54:53;;;;;;;189.53;61.73;;;;;;;;;;5053480;28;20440;-54
2023/08/13 01:57:19;;;;;;;188.67;58.17;;;;;;;;;;5053353;28;20495;-55
2023/08/13 01:59:45;;;;;;;195.83;63.77;;;;;;;;;;5053481;28;20437;-54
2023/08/13 02:02:11;;;;;;;186.20;56.10;;;;;;;;;;5051626;28;20431;-54
2023/08/13 02:04:37;;;;;;;188.70;58.33;;;;;;;;;;5052984;28;20930;-54
2023/08/13 02:07:03;;;;;;;188.07;56.53;;;;;;;;;;5052977;28;20967;-54
2023/08/13 02:09:29;;;;;;;191.97;60.67;;;;;;;;;;5053001;28;20412;-53
2023/08/13 02:11:55;;;;;;;188.57;56.97;;;;;;;;;;5052856;28;20442;-54
2023/08/13 02:14:21;;;;;;;187.47;57.17;;;;;;;;;;5051350;28;20452;-55
2023/08/13 02:16:47;;;;;;;188.93;58.20;;;;;;;;;;5053032;28;20420;-54
2023/08/13 02:19:13;;;;;;;189.10;59.40;;;;;;;;;;5049661;28;20784;-56
2023/08/13 02:21:38;;;;;;;189.30;57.67;;;;;;;;;;5052609;28;20522;-55
2023/08/13 02:24:05;;;;;;;188.60;57.93;;;;;;;;;;5052729;28;20413;-54
2023/08/13 02:26:31;;;;;;;189.40;58.60;;;;;;;;;;5052630;28;20466;-54
2023/08/13 02:28:56;;;;;;;192.40;61.50;;;;;;;;;;5047522;28;20479;-54
2023/08/13 02:31:22;;;;;;;192.20;58.83;;;;;;;;;;5052363;28;20438;-53
2023/08/13 02:33:48;;;;;;;188.43;57.33;;;;;;;;;;5051204;28;21551;-53
2023/08/13 02:36:14;;;;;;;190.80;58.83;;;;;;;;;;5049025;28;20505;-56
2023/08/13 02:38:40;;;;;;;192.20;61.67;;;;;;;;;;5053429;28;20476;-53
2023/08/13 02:41:06;;;;;;;188.00;57.40;;;;;;;;;;5052254;28;20440;-54
2023/08/13 02:43:34;;;;;;;189.80;58.47;;;;;;;;;;5052190;28;20415;-54
2023/08/13 02:46:00;;;;;;;189.70;60.03;;;;;;;;;;5052164;28;20970;-55
2023/08/13 02:48:26;;;;;;;186.77;56.03;;;;;;;;;;5052471;28;20416;-54
2023/08/13 02:50:52;;;;;;;189.17;60.23;;;;;;;;;;5052041;28;20894;-55
2023/08/13 02:53:17;;;;;;;183.17;56.73;;;;;;;;;;5052309;28;20414;-54
2023/08/13 02:55:43;;;;;;;184.77;57.87;;;;;;;;;;5052284;28;20419;-55
2023/08/13 02:58:09;;;;;;;182.17;55.70;;;;;;;;;;5052099;28;20418;-52
2023/08/13 03:00:35;;;;;;;184.57;58.60;;;;;;;;;;5051940;28;20437;-54
2023/08/13 03:03:01;;;;;;;183.83;58.40;;;;;;;;;;5050873;28;20440;-54
2023/08/13 03:05:27;;;;;;;182.90;55.70;;;;;;;;;;5051906;28;20421;-52
2023/08/13 03:07:53;;;;;;;185.00;58.77;;;;;;;;;;5051992;28;20418;-52
2023/08/13 03:10:19;;;;;;;185.60;59.00;;;;;;;;;;5051647;28;20410;-54
2023/08/13 03:12:45;;;;;;;185.53;60.10;;;;;;;;;;5051774;28;20440;-53
2023/08/13 03:15:11;;;;;;;188.07;61.50;;;;;;;;;;5050861;28;20418;-53
2023/08/13 03:17:37;;;;;;;185.40;59.10;;;;;;;;;;5051666;28;20427;-53
2023/08/13 03:20:03;;;;;;;185.63;58.33;;;;;;;;;;5048808;28;20418;-53
2023/08/13 03:22:29;;;;;;;184.70;57.77;;;;;;;;;;5051596;28;20434;-53
2023/08/13 03:24:55;;;;;;;183.60;56.27;;;;;;;;;;5045551;28;20415;-52
2023/08/13 03:27:21;;;;;;;186.93;61.00;;;;;;;;;;5051623;28;20466;-54
2023/08/13 03:29:47;;;;;;;190.27;62.47;;;;;;;;;;5050430;28;20421;-53
2023/08/13 03:32:13;;;;;;;185.73;60.10;;;;;;;;;;5051581;28;20533;-54
2023/08/13 03:34:39;;;;;;;189.47;62.47;;;;;;;;;;5051600;28;20401;-52
2023/08/13 03:37:05;;;;;;;186.50;60.53;;;;;;;;;;5047188;28;20461;-52
2023/08/13 03:39:31;;;;;;;184.57;57.70;;;;;;;;;;5051439;28;20471;-52
2023/08/13 03:41:57;;;;;;;185.70;58.87;;;;;;;;;;5051151;28;20429;-53
2023/08/13 03:44:23;;;;;;;190.70;64.70;;;;;;;;;;5050256;28;20429;-54
2023/08/13 03:46:49;;;;;;;181.47;56.03;;;;;;;;;;5051311;28;20463;-54
2023/08/13 03:49:15;;;;;;;181.57;56.60;;;;;;;;;;5051377;28;20412;-53
2023/08/13 03:51:41;;;;;;;181.17;57.47;;;;;;;;;;5051242;28;20570;-54
2023/08/13 03:54:07;;;;;;;183.37;57.90;;;;;;;;;;5051495;28;20521;-54
2023/08/13 03:56:32;;;;;;;184.70;58.83;;;;;;;;;;5051244;28;20508;-55
2023/08/13 03:58:58;;;;;;;181.00;55.87;;;;;;;;;;5050364;28;20428;-52
2023/08/13 04:01:24;;;;;;;183.57;59.60;;;;;;;;;;5048642;28;20594;-56
2023/08/13 04:03:50;;;;;;;186.73;62.17;;;;;;;;;;5051207;28;20448;-56
2023/08/13 04:06:16;;;;;;;183.63;57.93;;;;;;;;;;5051196;28;20821;-54
2023/08/13 04:08:42;;;;;;;183.17;59.33;;;;;;;;;;5048434;28;20413;-55
2023/08/13 04:11:08;;;;;;;182.67;58.27;;;;;;;;;;5046779;28;20839;-53
2023/08/13 04:13:34;;;;;;;184.57;60.17;;;;;;;;;;5050659;28;20770;-56
2023/08/13 04:16:00;;;;;;;181.57;56.77;;;;;;;;;;5051313;28;20416;-56
2023/08/13 04:18:26;;;;;;;179.90;55.60;;;;;;;;;;5051158;28;20421;-56
2023/08/13 04:20:52;;;;;;;181.17;57.67;;;;;;;;;;5050973;28;20793;-56
2023/08/13 04:23:18;;;;;;;188.30;60.20;;;;;;;;;;5043776;28;20488;-54
2023/08/13 04:25:45;;;;;;;184.13;56.70;;;;;;;;;;5050327;28;20484;-54
2023/08/13 04:28:12;;;;;;;184.40;62.43;;;;;;;;;;5046363;28;20779;-54
2023/08/13 04:30:38;;;;;;;185.17;63.47;;;;;;;;;;5047848;28;20472;-55
2023/08/13 04:33:05;;;;;;;183.70;59.30;;;;;;;;;;5046330;28;20466;-55
2023/08/13 04:35:31;;;;;;;184.07;59.10;;;;;;;;;;5049924;28;20926;-51
2023/08/13 04:37:57;;;;;;;181.80;57.00;;;;;;;;;;5048535;28;20406;-53
2023/08/13 04:40:23;;;;;;;183.80;59.27;;;;;;;;;;5050574;28;20462;-54
2023/08/13 04:42:49;;;;;;;179.50;55.67;;;;;;;;;;5051030;28;20409;-54
2023/08/13 04:45:15;;;;;;;181.23;58.10;;;;;;;;;;5050910;28;20420;-55
2023/08/13 04:47:41;;;;;;;176.90;54.80;;;;;;;;;;5050871;28;20548;-54
2023/08/13 04:50:08;;;;;;;180.33;56.47;;;;;;;;;;5049389;28;20421;-56
2023/08/13 04:52:34;;;;;;;180.37;56.30;;;;;;;;;;5050937;28;21177;-54
2023/08/13 04:55:00;;;;;;;179.10;56.37;;;;;;;;;;5050839;28;20463;-54
2023/08/13 04:57:26;;;;;;;181.37;59.17;;;;;;;;;;5050803;28;20426;-52
2023/08/13 04:59:52;;;;;;;181.30;58.03;;;;;;;;;;5053001;28;20449;-51
2023/08/13 05:02:18;;;;;;;181.07;56.50;;;;;;;;;;5053185;28;20945;-50
2023/08/13 05:04:44;;;;;;;178.37;55.43;;;;;;;;;;5054223;28;20422;-56
2023/08/13 05:07:10;;;;;;;179.37;55.87;;;;;;;;;;5054352;28;20453;-56
2023/08/13 05:09:36;;;;;;;178.57;55.07;;;;;;;;;;5052757;28;20440;-55
2023/08/13 05:12:02;;;;;;;179.70;55.67;;;;;;;;;;5054337;28;20455;-54
2023/08/13 05:14:28;;;;;;;184.60;58.77;;;;;;;;;;5054070;28;20411;-51
2023/08/13 05:16:55;;;;;;;181.10;57.43;;;;;;;;;;5053163;28;20417;-54
2023/08/13 05:19:21;;;;;;;182.00;57.50;;;;;;;;;;5051399;28;20414;-53
2023/08/13 05:21:47;;;;;;;178.40;55.87;;;;;;;;;;5053786;28;20442;-52
2023/08/13 05:24:13;;;;;;;182.80;58.10;;;;;;;;;;5048010;28;20474;-53
2023/08/13 05:26:39;;;;;;;185.30;56.97;;;;;;;;;;5053803;28;20467;-54
2023/08/13 05:29:05;;;;;;;185.53;58.03;;;;;;;;;;5054198;28;20413;-51
2023/08/13 05:31:31;;;;;;;182.93;56.27;;;;;;;;;;5052696;28;20431;-54
2023/08/13 05:33:58;;;;;;;182.03;56.63;;;;;;;;;;5053964;28;20416;-52
2023/08/13 05:36:24;;;;;;;184.20;58.73;;;;;;;;;;5049603;28;20413;-56
2023/08/13 05:38:51;;;;;;;182.00;56.27;;;;;;;;;;5053666;28;20508;-54
2023/08/13 05:41:17;;;;;;;185.53;60.67;;;;;;;;;;5053579;28;20803;-51
2023/08/13 05:43:43;;;;;;;183.77;59.87;;;;;;;;;;5053534;28;20407;-51
2023/08/13 05:46:09;;;;;;;183.47;57.17;;;;;;;;;;5052184;28;20449;-56
2023/08/13 05:48:36;;;;;;;183.13;59.97;;;;;;;;;;5052991;28;20912;-53
2023/08/13 05:51:02;;;;;;;183.13;57.50;;;;;;;;;;5052622;28;20529;-54
2023/08/13 05:53:28;;;;;;;184.17;56.90;;;;;;;;;;5048399;28;20491;-53
2023/08/13 05:55:58;;;;;;;185.33;59.70;;;;;;;;;;5050986;28;20929;-51
2023/08/13 05:58:24;;;;;;;186.80;61.47;;;;;;;;;;5050955;28;20426;-54
2023/08/13 06:00:50;;;;;;;184.80;57.13;;;;;;;;;;5052169;28;20451;-54
2023/08/13 06:03:16;;;;;;;179.37;53.40;;;;;;;;;;5052496;28;20477;-54
2023/08/13 06:05:42;;;;;;;186.20;61.03;;;;;;;;;;5052261;28;20466;-51
2023/08/13 06:08:08;;;;;;;183.43;56.87;;;;;;;;;;5053427;28;20406;-51
2023/08/13 06:10:34;;;;;;;185.27;58.37;;;;;;;;;;5049761;28;20432;-51
2023/08/13 06:13:00;;;;;;;185.63;57.60;;;;;;;;;;5051262;28;20412;-52
2023/08/13 06:15:26;;;;;;;187.87;60.20;;;;;;;;;;5052717;28;20417;-51
2023/08/13 06:17:52;;;;;;;182.47;55.97;;;;;;;;;;5050672;28;20915;-51
2023/08/13 06:20:18;;;;;;;183.83;57.70;;;;;;;;;;5049040;28;20416;-51
2023/08/13 06:22:45;;;;;;;185.70;60.83;;;;;;;;;;5052893;28;20450;-51
2023/08/13 06:25:11;;;;;;;182.67;56.10;;;;;;;;;;5050182;28;20951;-52
2023/08/13 06:27:37;;;;;;;183.77;56.33;;;;;;;;;;5052515;28;20467;-51
2023/08/13 06:30:03;;;;;;;187.00;60.00;;;;;;;;;;5049215;28;20416;-54
2023/08/13 06:32:29;;;;;;;188.10;63.20;;;;;;;;;;5052563;28;20447;-54
2023/08/13 06:34:55;;;;;;;186.63;60.13;;;;;;;;;;5048639;28;20563;-55
2023/08/13 06:37:21;;;;;;;186.57;59.47;;;;;;;;;;5049997;28;20419;-54
2023/08/13 06:39:46;;;;;;;190.30;62.60;;;;;;;;;;5052357;28;20419;-55
2023/08/13 06:42:12;;;;;;;183.17;55.07;;;;;;;;;;5050924;28;20531;-51
2023/08/13 06:44:38;;;;;;;181.70;55.00;;;;;;;;;;5055476;28;20423;-50
2023/08/13 06:47:04;;;;;;;186.17;59.07;;;;;;;;;;5052392;28;20452;-52
2023/08/13 06:49:30;;;;;;;185.67;58.70;;;;;;;;;;5052260;28;20416;-52
2023/08/13 06:51:56;;;;;;;185.87;57.50;;;;;;;;;;5051931;28;20586;-53
2023/08/13 06:54:22;;;;;;;184.30;57.10;;;;;;;;;;5050871;28;20466;-51
2023/08/13 06:56:48;;;;;;;184.83;57.53;;;;;;;;;;5052317;28;20409;-56
2023/08/13 06:59:14;;;;;;;183.97;58.17;;;;;;;;;;5052240;28;20908;-56
2023/08/13 07:01:40;;;;;;;187.67;62.13;;;;;;;;;;5048406;28;20813;-56
2023/08/13 07:04:06;;;;;;;189.70;60.17;;;;;;;;;;5051919;28;20419;-56
2023/08/13 07:06:32;;;;;;;187.07;58.20;;;;;;;;;;5052054;28;20475;-56
2023/08/13 07:08:58;;;;;;;190.50;62.30;;;;;;;;;;5050695;28;20412;-56
2023/08/13 07:11:24;;;;;;;186.93;58.17;;;;;;;;;;5051660;28;20433;-56
2023/08/13 07:13:55;;;;;;;188.37;60.17;;;;;;;;;;5051992;28;20412;-54
2023/08/13 07:16:23;;;;;;;191.40;61.97;;;;;;;;;;5042301;28;20433;-51
2023/08/13 07:18:49;;;;;;;194.50;62.73;;;;;;;;;;5046911;28;20420;-53
2023/08/13 07:21:15;;;;;;;190.60;59.93;;;;;;;;;;5051157;28;20442;-53
2023/08/13 07:23:41;;;;;;;192.43;59.97;;;;;;;;;;5050383;28;20924;-56
2023/08/13 07:26:07;;;;;;;194.90;65.90;;;;;;;;;;5050588;28;20539;-56
2023/08/13 07:28:34;;;;;;;191.13;58.50;;;;;;;;;;5050928;28;20504;-52
2023/08/13 07:31:03;;;;;;;194.93;63.40;;;;;;;;;;5050368;28;20961;-53
2023/08/13 07:33:30;;;;;;;191.83;60.83;;;;;;;;;;5049745;28;20495;-54
2023/08/13 07:35:56;;;;;;;190.90;59.80;;;;;;;;;;5045771;28;20490;-52
2023/08/13 07:38:22;;;;;;;191.27;62.23;;;;;;;;;;5050292;28;20414;-53
2023/08/13 07:40:48;;;;;;;192.47;65.87;;;;;;;;;;5051412;28;20433;-56
2023/08/13 07:43:14;;;;;;;188.90;60.83;;;;;;;;;;5051620;28;20554;-52
2023/08/13 07:45:40;;;;;;;192.17;62.27;;;;;;;;;;5051355;28;20413;-56
2023/08/13 07:48:08;;;;;;;191.03;60.70;;;;;;;;;;5050632;28;20421;-54
2023/08/13 07:50:34;;;;;;;190.87;61.77;;;;;;;;;;5050037;28;20436;-54
2023/08/13 07:53:00;;;;;;;192.17;63.20;;;;;;;;;;5051451;28;20409;-55
2023/08/13 07:55:26;;;;;;;191.47;61.80;;;;;;;;;;5051168;28;20419;-54
2023/08/13 07:57:52;;;;;;;192.50;62.73;;;;;;;;;;5051503;28;20449;-54
2023/08/13 08:00:18;;;;;;;192.10;62.60;;;;;;;;;;5051020;28;20421;-54
2023/08/13 08:02:44;;;;;;;191.53;61.47;;;;;;;;;;5051304;28;20450;-55
2023/08/13 08:05:10;;;;;;;193.47;65.30;;;;;;;;;;5050148;28;20424;-55
2023/08/13 08:07:36;;;;;;;192.47;63.73;;;;;;;;;;5051256;28;20529;-54
2023/08/13 08:10:03;;;;;;;193.30;63.57;;;;;;;;;;5051195;28;20470;-55
2023/08/13 08:12:29;;;;;;;196.70;67.07;;;;;;;;;;5051258;28;20480;-55
2023/08/13 08:14:55;;;;;;;197.00;67.67;;;;;;;;;;5045037;28;20404;-53
2023/08/13 08:17:21;;;;;;;196.43;67.20;;;;;;;;;;5051204;28;20413;-55
2023/08/13 08:19:48;;;;;;;199.47;68.57;;;;;;;;;;5051016;28;20420;-55
2023/08/13 08:22:15;;;;;;;194.77;63.90;;;;;;;;;;5048521;28;20810;-54
2023/08/13 08:24:41;;;;;;;195.60;65.77;;;;;;;;;;5051103;28;20479;-55
2023/08/13 08:27:09;;;;;;;199.20;69.87;;;;;;;;;;5050651;28;20961;-55
2023/08/13 08:29:36;;;;;;;192.33;62.93;;;;;;;;;;5051001;28;20405;-55
2023/08/13 08:32:02;;;;;;;191.10;63.63;;;;;;;;;;5051178;28;20429;-55
2023/08/13 08:34:30;;;;;;;193.20;66.07;;;;;;;;;;5051682;28;20904;-55
2023/08/13 08:36:55;;;;;;;200.27;74.50;;;;;;;;;;5054907;28;20921;-55
2023/08/13 08:39:21;;;;;;;196.73;70.27;;;;;;;;;;5054760;28;20466;-54
2023/08/13 08:41:48;;;;;;;196.63;70.97;;;;;;;;;;5054484;28;20447;-55
2023/08/13 08:44:21;;;;;;;191.83;64.27;;;;;;;;;;5054700;28;20420;-55
2023/08/13 08:46:48;;;;;;;194.60;68.43;;;;;;;;;;5047697;28;20517;-55
2023/08/13 08:49:14;;;;;;;196.63;69.33;;;;;;;;;;5054754;28;20408;-55
2023/08/13 08:51:41;;;;;;;191.93;65.50;;;;;;;;;;5046281;28;20448;-53
2023/08/13 08:54:06;;;;;;;193.53;66.83;;;;;;;;;;5050111;28;20933;-55
2023/08/13 08:56:32;;;;;;;192.03;65.17;;;;;;;;;;5054750;28;20417;-55
2023/08/13 08:58:58;;;;;;;198.10;70.53;;;;;;;;;;5054418;28;20569;-55
2023/08/13 09:01:24;;;;;;;201.47;74.20;;;;;;;;;;5053052;28;20440;-55
2023/08/13 09:03:51;;;;;;;194.50;64.70;;;;;;;;;;5054367;28;20421;-55
2023/08/13 09:06:17;;;;;;;197.93;69.07;;;;;;;;;;5054306;28;20456;-55
2023/08/13 09:08:43;;;;;;;198.07;70.03;;;;;;;;;;5054258;28;21043;-55
2023/08/13 09:11:09;;;;;;;197.83;69.87;;;;;;;;;;5054036;28;20428;-54
2023/08/13 09:13:35;;;;;;;195.97;68.60;;;;;;;;;;5054170;28;20885;-54
2023/08/13 09:16:01;;;;;;;198.00;70.23;;;;;;;;;;5053265;28;20428;-54
2023/08/13 09:18:27;;;;;;;197.07;68.30;;;;;;;;;;5051459;28;20979;-55
2023/08/13 09:20:56;;;;;;;194.93;65.97;;;;;;;;;;5053845;28;20479;-55
2023/08/13 09:23:22;;;;;;;196.00;67.03;;;;;;;;;;5053886;28;20449;-55
2023/08/13 09:25:52;;;;;;;196.47;67.70;;;;;;;;;;5053936;28;20452;-63
2023/08/13 09:28:19;;;;;;;196.80;69.33;;;;;;;;;;5052535;28;20405;-54
2023/08/13 09:30:45;;;;;;;194.67;66.77;;;;;;;;;;5053860;28;20940;-55
2023/08/13 09:33:13;;;;;;;194.67;65.20;;;;;;;;;;5053915;28;20928;-55
2023/08/13 09:35:40;;;;;;;196.97;70.23;;;;;;;;;;5053795;28;20413;-54
2023/08/13 09:38:06;;;;;;;195.63;67.57;;;;;;;;;;5053955;28;20418;-55
2023/08/13 09:40:32;;;;;;;197.73;68.67;;;;;;;;;;5053434;28;20500;-55
2023/08/13 09:42:58;;;;;;;199.93;73.00;;;;;;;;;;5052799;28;20406;-55
2023/08/13 09:45:28;;;;;;;195.50;66.73;;;;;;;;;;5053166;28;20914;-53
2023/08/13 09:47:55;;;;;;;198.47;72.80;;;;;;;;;;5053412;28;20488;-54
2023/08/13 09:50:22;;;;;;;194.73;66.93;;;;;;;;;;5053165;28;20428;-55
2023/08/13 09:52:48;;;;;;;195.97;69.20;;;;;;;;;;5053659;28;20460;-52
2023/08/13 09:55:16;;;;;;;197.20;69.67;;;;;;;;;;5050061;28;20436;-54
2023/08/13 09:57:42;;;;;;;195.73;67.93;;;;;;;;;;5053336;28;20462;-55
2023/08/13 10:00:09;;;;;;;195.87;67.87;;;;;;;;;;5052186;28;20413;-55
2023/08/13 10:02:36;;;;;;;199.93;73.20;;;;;;;;;;5052930;28;20444;-55
2023/08/13 10:05:03;;;;;;;196.90;70.63;;;;;;;;;;5047089;28;20409;-55
2023/08/13 10:07:29;;;;;;;199.30;74.33;;;;;;;;;;5037127;28;20461;-54
2023/08/13 10:09:56;;;;;;;201.60;74.07;;;;;;;;;;5052132;28;20393;-54
2023/08/13 10:12:22;;;;;;;196.67;71.00;;;;;;;;;;5052967;28;20431;-54
2023/08/13 10:14:49;;;;;;;200.00;71.63;;;;;;;;;;5052148;28;20944;-55
2023/08/13 10:17:17;;;;;;;197.67;71.20;;;;;;;;;;5052962;28;20421;-54
2023/08/13 10:19:46;;;;;;;199.93;73.00;;;;;;;;;;5051596;28;20429;-55
2023/08/13 10:22:12;;;;;;;196.67;73.03;;;;;;;;;;5052884;28;20789;-56
2023/08/13 10:24:38;;;;;;;200.60;76.63;;;;;;;;;;5052845;28;20503;-55
2023/08/13 10:27:04;;;;;;;201.43;76.10;;;;;;;;;;5052306;28;20457;-55
2023/08/13 10:29:37;;;;;;;196.93;73.27;;;;;;;;;;5052802;28;20401;-55
2023/08/13 10:32:24;;;;;;;198.27;72.43;;;;;;;;;;5052743;28;20449;-55
2023/08/13 10:34:50;;;;;;;198.80;74.97;;;;;;;;;;5052660;28;20434;-55
2023/08/13 10:37:23;;;;;;;199.80;75.07;;;;;;;;;;5052597;28;20421;-55
2023/08/13 10:39:55;;;;;;;204.27;79.47;;;;;;;;;;5052334;28;20417;-55
2023/08/13 10:42:27;;;;;;;198.80;73.47;;;;;;;;;;5052379;28;20448;-55
2023/08/13 10:45:06;;;;;;;196.60;71.83;;;;;;;;;;5052526;28;20448;-54
2023/08/13 10:47:39;;;;;;;197.70;72.77;;;;;;;;;;5052453;28;20468;-55
2023/08/13 10:50:06;;;;;;;197.77;76.67;;;;;;;;;;5052036;28;20483;-55
2023/08/13 10:52:32;;;;;;;201.67;79.73;;;;;;;;;;5052333;28;20434;-55
2023/08/13 10:55:00;;;;;;;198.13;73.17;;;;;;;;;;5052188;28;20504;-55
2023/08/13 10:57:29;;;;;;;199.00;76.03;;;;;;;;;;5051679;28;20393;-54
2023/08/13 10:59:56;;;;;;;198.67;74.50;;;;;;;;;;5052206;28;20735;-56
2023/08/13 11:02:24;;;;;;;199.27;75.03;;;;;;;;;;5033891;28;20434;-55
2023/08/13 11:04:50;;;;;;;198.43;71.63;;;;;;;;;;5047309;28;20414;-55
2023/08/13 11:07:16;;;;;;;198.87;72.93;;;;;;;;;;5052070;28;20465;-55
2023/08/13 11:09:42;;;;;;;200.83;75.17;;;;;;;;;;5051861;28;20931;-55
2023/08/13 11:12:09;;;;;;;200.53;78.67;;;;;;;;;;5052034;28;20425;-56
2023/08/13 11:14:38;;;;;;;196.90;71.13;;;;;;;;;;5051938;28;20417;-54
2023/08/13 11:17:04;;;;;;;198.43;72.17;;;;;;;;;;5051870;28;20406;-55
2023/08/13 11:19:30;;;;;;;196.13;69.80;;;;;;;;;;5051944;28;20410;-54
2023/08/13 11:21:57;;;;;;;195.40;70.20;;;;;;;;;;5051621;28;20505;-55
2023/08/13 11:24:23;;;;;;;197.93;72.40;;;;;;;;;;5051668;28;20413;-55
2023/08/13 11:26:49;;;;;;;199.00;76.37;;;;;;;;;;5051735;28;20495;-55
2023/08/13 11:29:19;;;;;;;199.47;77.50;;;;;;;;;;5051268;28;20436;-53
2023/08/13 11:31:45;;;;;;;198.27;74.47;;;;;;;;;;5051490;28;20433;-55
2023/08/13 11:34:11;;;;;;;198.00;76.03;;;;;;;;;;5051662;28;20409;-54
2023/08/13 11:36:37;;;;;;;197.40;74.90;;;;;;;;;;5051708;28;20397;-54
2023/08/13 11:39:03;;;;;;;194.43;71.97;;;;;;;;;;5051266;28;20504;-56
2023/08/13 11:41:29;;;;;;;200.87;79.33;;;;;;;;;;5043846;28;20494;-55
2023/08/13 11:43:55;;;;;;;198.13;73.60;;;;;;;;;;5051145;28;20421;-55
2023/08/13 11:46:22;;;;;;;198.63;73.93;;;;;;;;;;5051417;28;20493;-56
2023/08/13 11:48:53;;;;;;;208.13;83.93;;;;;;;;;;5046671;28;20424;-56
2023/08/13 11:51:24;;;;;;;200.60;77.90;;;;;;;;;;5051175;28;20506;-56
2023/08/13 11:53:50;;;;;;;199.77;78.97;;;;;;;;;;5051343;28;20496;-55
2023/08/13 11:56:17;;;;;;;207.37;85.33;;;;;;;;;;5050651;28;20409;-56
2023/08/13 11:58:43;;;;;;;198.63;73.57;;;;;;;;;;5051072;28;20405;-56
2023/08/13 12:01:12;;;;;;;196.87;72.93;;;;;;;;;;5051261;28;20802;-56
2023/08/13 12:03:42;;;;;;;198.17;73.00;;;;;;;;;;5049888;28;20417;-56
2023/08/13 12:06:08;;;;;;;197.10;71.73;;;;;;;;;;5051228;28;20945;-55
2023/08/13 12:08:34;;;;;;;198.23;72.20;;;;;;;;;;5053331;28;20421;-55
2023/08/13 12:11:02;;;;;;;199.00;73.27;;;;;;;;;;5055042;28;20491;-55
2023/08/13 12:13:28;;;;;;;198.20;72.57;;;;;;;;;;5054444;28;20830;-55
2023/08/13 12:15:55;;;;;;;197.00;71.07;;;;;;;;;;5049229;28;20412;-55
2023/08/13 12:18:22;;;;;;;198.77;74.43;;;;;;;;;;5054502;28;20923;-55
2023/08/13 12:20:48;;;;;;;202.17;76.40;;;;;;;;;;5053461;28;20519;-55
2023/08/13 12:23:14;;;;;;;197.53;71.37;;;;;;;;;;5053572;28;20504;-53
2023/08/13 12:25:40;;;;;;;197.40;71.63;;;;;;;;;;5049544;28;20731;-56
2023/08/13 12:28:06;;;;;;;197.57;71.40;;;;;;;;;;5048963;28;20410;-55
2023/08/13 12:30:32;;;;;;;199.17;74.47;;;;;;;;;;5053118;28;20467;-55
2023/08/13 12:32:58;;;;;;;194.73;67.13;;;;;;;;;;5051516;28;20417;-55
2023/08/13 12:35:24;;;;;;;196.73;73.77;;;;;;;;;;5054954;28;20406;-55
2023/08/13 12:37:50;;;;;;;198.50;74.67;;;;;;;;;;5050870;28;20512;-56
2023/08/13 12:40:16;;;;;;;195.17;69.00;;;;;;;;;;5054708;28;20423;-56
2023/08/13 12:42:43;;;;;;;198.17;75.77;;;;;;;;;;5054740;28;20429;-56
2023/08/13 12:45:09;;;;;;;196.00;71.63;;;;;;;;;;5054180;28;20417;-55
2023/08/13 12:47:36;;;;;;;197.47;74.70;;;;;;;;;;5054783;28;20464;-54
2023/08/13 12:50:03;;;;;;;200.47;79.63;;;;;;;;;;5054539;28;20425;-55
2023/08/13 12:52:29;;;;;;;199.27;78.07;;;;;;;;;;5054613;28;20425;-56
2023/08/13 12:54:55;;;;;;;198.87;74.63;;;;;;;;;;5054663;28;20427;-55
2023/08/13 12:57:21;;;;;;;197.37;72.20;;;;;;;;;;5054577;28;20421;-55
2023/08/13 12:59:47;;;;;;;201.37;77.50;;;;;;;;;;5053721;28;20419;-56
2023/08/13 13:02:13;;;;;;;198.13;72.73;;;;;;;;;;5054388;28;20433;-55
2023/08/13 13:04:39;;;;;;;197.50;73.87;;;;;;;;;;5054467;28;20418;-54
2023/08/13 13:07:05;;;;;;;199.20;76.07;;;;;;;;;;5044004;28;20453;-54
2023/08/13 13:09:31;;;;;;;199.00;75.53;;;;;;;;;;5051906;28;20425;-54
2023/08/13 13:11:57;;;;;;;198.00;74.50;;;;;;;;;;5048349;28;20944;-54
2023/08/13 13:14:23;;;;;;;199.17;76.27;;;;;;;;;;5053661;28;20918;-54
2023/08/13 13:16:49;;;;;;;197.03;73.63;;;;;;;;;;5054255;28;20447;-55
2023/08/13 13:19:16;;;;;;;199.60;75.90;;;;;;;;;;5049725;28;20502;-55
2023/08/13 13:21:42;;;;;;;200.03;79.00;;;;;;;;;;5048399;28;20468;-56
2023/08/13 13:24:09;;;;;;;194.03;70.63;;;;;;;;;;5053995;28;20500;-55
2023/08/13 13:26:36;;;;;;;196.13;73.63;;;;;;;;;;5053501;28;20469;-55
2023/08/13 13:29:02;;;;;;;196.40;72.63;;;;;;;;;;5054141;28;20829;-56
2023/08/13 13:31:28;;;;;;;197.00;75.43;;;;;;;;;;5053805;28;20921;-56
2023/08/13 13:33:54;;;;;;;196.83;72.77;;;;;;;;;;5053835;28;20458;-56
2023/08/13 13:36:20;;;;;;;199.57;76.93;;;;;;;;;;5048292;28;20417;-56
2023/08/13 13:38:46;;;;;;;196.93;75.27;;;;;;;;;;5053979;28;20495;-55
2023/08/13 13:41:12;;;;;;;197.23;74.43;;;;;;;;;;5053088;28;20436;-55
2023/08/13 13:43:38;;;;;;;200.10;77.40;;;;;;;;;;5053617;28;20417;-56
2023/08/13 13:46:04;;;;;;;198.27;73.43;;;;;;;;;;5053668;28;20506;-56
2023/08/13 13:48:30;;;;;;;199.63;79.87;;;;;;;;;;5054200;28;20409;-56
2023/08/13 13:50:56;;;;;;;198.47;73.97;;;;;;;;;;5053154;28;20811;-56
2023/08/13 13:53:21;;;;;;;195.47;70.83;;;;;;;;;;5053689;28;20787;-57
2023/08/13 13:55:48;;;;;;;199.33;78.43;;;;;;;;;;5052921;28;20421;-55
2023/08/13 13:58:14;;;;;;;199.73;76.80;;;;;;;;;;5053367;28;20463;-53
2023/08/13 14:00:40;;;;;;;200.00;79.17;;;;;;;;;;5053197;28;20405;-56